TAFOR
Diposting tanggal: 10 Juni 2019

Pukul :

Isi :

TAF WAGI 220500Z 2206/2218 26003KT 8000 FEW014CB SCT015 TEMPO 2206/2210 3000 RA=